createdAt,value
2023-02-11T00:03:59.384Z,57.17
2023-02-11T00:08:02.281Z,60.27
2023-02-11T00:12:06.712Z,56.73
2023-02-11T00:16:11.263Z,57.63
2023-02-11T00:20:14.220Z,49.63
2023-02-11T00:24:17.216Z,50.33
2023-02-11T00:28:21.865Z,47.87
2023-02-11T00:32:24.903Z,47.17
2023-02-11T00:36:29.703Z,44.30
2023-02-11T00:40:32.401Z,41.97
2023-02-11T00:44:36.906Z,42.20
2023-02-11T00:48:39.750Z,41.23
2023-02-11T00:52:42.668Z,40.77
2023-02-11T00:56:45.337Z,41.83
2023-02-11T01:00:49.557Z,38.47
2023-02-11T01:04:52.280Z,41.43
2023-02-11T01:08:55.017Z,38.70
2023-02-11T01:12:57.723Z,42.70
2023-02-11T01:17:01.820Z,43.77
2023-02-11T01:21:04.968Z,39.93
2023-02-11T01:25:08.165Z,40.07
2023-02-11T01:29:11.166Z,37.83
2023-02-11T01:33:15.491Z,36.43
2023-02-11T01:37:18.214Z,38.37
2023-02-11T01:41:21.229Z,37.70
2023-02-11T01:45:44.192Z,39.77
2023-02-11T01:49:51.926Z,41.37
2023-02-11T01:54:12.663Z,37.70
2023-02-11T01:58:15.414Z,39.07
2023-02-11T02:02:21.326Z,38.10
2023-02-11T02:06:29.817Z,40.00
2023-02-11T02:10:33.832Z,42.00
2023-02-11T02:14:39.943Z,40.13
2023-02-11T02:18:51.075Z,41.30
2023-02-11T02:23:31.583Z,39.73
2023-02-11T02:27:52.018Z,38.43
2023-02-11T02:32:18.196Z,36.83
2023-02-11T02:36:24.768Z,36.20
2023-02-11T02:40:30.923Z,36.80
2023-02-11T02:44:33.694Z,36.23
2023-02-11T02:48:37.996Z,34.77
2023-02-11T02:52:49.008Z,35.13
2023-02-11T02:56:56.354Z,37.43
2023-02-11T03:01:05.555Z,34.90
2023-02-11T03:05:13.344Z,34.50
2023-02-11T03:09:19.430Z,34.33
2023-02-11T03:13:27.966Z,34.60
2023-02-11T03:17:31.374Z,37.33
2023-02-11T03:21:37.048Z,36.07
2023-02-11T03:25:45.817Z,34.53
2023-02-11T03:29:54.586Z,33.50
2023-02-11T03:34:02.346Z,36.43
2023-02-11T03:38:09.009Z,34.50
2023-02-11T03:42:12.474Z,33.30
2023-02-11T03:46:17.702Z,36.80
2023-02-11T03:50:22.569Z,36.20
2023-02-11T03:54:34.536Z,32.60
2023-02-11T03:58:37.244Z,29.63
2023-02-11T04:02:41.485Z,30.50
2023-02-11T04:06:44.434Z,31.27
2023-02-11T04:10:48.513Z,31.60
2023-02-11T04:14:51.485Z,29.07
2023-02-11T04:18:54.416Z,30.87
2023-02-11T04:22:57.120Z,27.97
2023-02-11T04:27:01.221Z,27.83
2023-02-11T04:31:03.928Z,27.23
2023-02-11T04:35:07.497Z,28.23
2023-02-11T04:39:10.474Z,26.87
2023-02-11T04:43:14.536Z,28.60
2023-02-11T04:47:17.253Z,32.33
2023-02-11T04:51:19.959Z,27.90
2023-02-11T04:55:22.671Z,25.13
2023-02-11T04:59:26.793Z,23.53
2023-02-11T05:03:29.725Z,24.83
2023-02-11T05:07:32.646Z,24.20
2023-02-11T05:11:36.640Z,22.93
2023-02-11T05:15:40.980Z,22.40
2023-02-11T05:19:43.833Z,24.47
2023-02-11T05:23:46.875Z,22.73
2023-02-11T05:27:49.539Z,22.83
2023-02-11T05:31:53.925Z,36.80
2023-02-11T05:36:00.160Z,30.63
2023-02-11T05:40:02.926Z,30.77
2023-02-11T05:44:05.929Z,22.90
2023-02-11T05:48:09.938Z,22.30
2023-02-11T05:52:12.870Z,23.37
2023-02-11T05:56:15.635Z,22.03
2023-02-11T06:00:19.311Z,23.03
2023-02-11T06:04:23.728Z,21.77
2023-02-11T06:08:26.710Z,21.43
2023-02-11T06:12:29.432Z,22.13
2023-02-11T06:16:32.515Z,21.90
2023-02-11T06:20:37.253Z,22.43
2023-02-11T06:24:59.780Z,22.47
2023-02-11T06:29:03.066Z,21.80
2023-02-11T06:33:05.916Z,21.77
2023-02-11T06:37:12.560Z,23.07
2023-02-11T06:41:17.529Z,25.23
2023-02-11T06:45:20.603Z,25.23
2023-02-11T06:49:23.302Z,22.43
2023-02-11T06:53:28.246Z,23.13
2023-02-11T06:57:31.469Z,22.67
2023-02-11T07:01:34.420Z,23.73
2023-02-11T07:05:38.770Z,26.37
2023-02-11T07:09:43.037Z,27.63
2023-02-11T07:13:48.014Z,23.63
2023-02-11T07:17:50.775Z,23.73
2023-02-11T07:21:54.201Z,22.73
2023-02-11T07:25:58.522Z,24.63
2023-02-11T07:30:01.549Z,25.27
2023-02-11T07:34:04.340Z,25.70
2023-02-11T07:38:07.047Z,24.07
2023-02-11T07:42:11.646Z,26.83
2023-02-11T07:46:15.974Z,25.17
2023-02-11T07:50:19.250Z,25.47
2023-02-11T07:54:22.039Z,25.20
2023-02-11T07:58:27.412Z,22.87
2023-02-11T08:02:30.192Z,24.17
2023-02-11T08:06:34.957Z,25.70
2023-02-11T08:10:38.029Z,26.23
2023-02-11T08:14:42.328Z,25.47
2023-02-11T08:18:45.365Z,22.10
2023-02-11T08:22:48.050Z,23.90
2023-02-11T08:26:52.649Z,23.03
2023-02-11T08:30:56.755Z,24.27
2023-02-11T08:35:01.910Z,31.07
2023-02-11T08:39:22.697Z,28.80
2023-02-11T08:43:25.412Z,21.67
2023-02-11T08:47:29.482Z,20.07
2023-02-11T08:51:32.260Z,21.47
2023-02-11T08:55:35.051Z,20.50
2023-02-11T08:59:40.006Z,19.00
2023-02-11T09:03:44.387Z,20.63
2023-02-11T09:07:47.335Z,18.97
2023-02-11T09:11:50.058Z,17.90
2023-02-11T09:15:52.774Z,18.07
2023-02-11T09:19:56.874Z,18.97
2023-02-11T09:23:59.709Z,20.87
2023-02-11T09:28:02.475Z,19.43
2023-02-11T09:32:09.393Z,17.67
2023-02-11T09:36:13.922Z,17.67
2023-02-11T09:40:17.088Z,18.73
2023-02-11T09:44:21.747Z,19.10
2023-02-11T09:48:25.035Z,17.60
2023-02-11T09:52:34.058Z,18.57
2023-02-11T09:56:37.694Z,19.50
2023-02-11T10:00:44.496Z,20.50
2023-02-11T10:05:03.429Z,18.70
2023-02-11T10:09:34.127Z,17.60
2023-02-11T10:13:44.946Z,17.53
2023-02-11T10:18:00.965Z,20.73
2023-02-11T10:22:09.583Z,19.77
2023-02-11T10:26:16.281Z,19.53
2023-02-11T10:30:26.281Z,17.70
2023-02-11T10:34:29.047Z,21.40
2023-02-11T10:38:33.026Z,19.53
2023-02-11T10:42:37.191Z,16.93
2023-02-11T10:46:41.012Z,20.10
2023-02-11T10:50:43.946Z,19.30
2023-02-11T10:54:58.554Z,17.60
2023-02-11T10:59:06.017Z,20.87
2023-02-11T11:03:18.593Z,21.90
2023-02-11T11:07:23.232Z,22.57
2023-02-11T11:11:26.833Z,21.70
2023-02-11T11:15:32.893Z,21.87
2023-02-11T11:19:39.127Z,21.83
2023-02-11T11:23:49.618Z,21.33
2023-02-11T11:27:52.989Z,21.33
2023-02-11T11:32:02.108Z,22.20
2023-02-11T11:36:07.676Z,23.30
2023-02-11T11:40:18.915Z,20.07
2023-02-11T11:44:27.906Z,22.20
2023-02-11T11:48:35.993Z,24.30
2023-02-11T11:52:42.865Z,22.10
2023-02-11T11:56:52.541Z,21.07
2023-02-11T12:01:00.115Z,20.17
2023-02-11T12:05:10.758Z,21.20
2023-02-11T12:09:22.594Z,22.17
2023-02-11T12:13:34.066Z,20.67
2023-02-11T12:17:54.810Z,21.00
2023-02-11T12:22:04.116Z,21.60
2023-02-11T12:26:13.863Z,23.23
2023-02-11T12:30:28.201Z,22.63
2023-02-11T12:34:41.214Z,23.03
2023-02-11T12:38:56.633Z,21.70
2023-02-11T12:43:19.946Z,22.43
2023-02-11T12:47:27.740Z,19.77
2023-02-11T12:51:39.907Z,21.40
2023-02-11T12:55:47.082Z,21.23
2023-02-11T12:59:56.678Z,21.37
2023-02-11T13:04:08.491Z,22.17
2023-02-11T13:08:14.336Z,22.10
2023-02-11T13:12:35.892Z,21.83
2023-02-11T13:16:42.000Z,20.73
2023-02-11T13:20:47.024Z,22.10
2023-02-11T13:24:54.535Z,18.20
2023-02-11T13:29:02.998Z,20.57
2023-02-11T13:33:15.601Z,20.00
2023-02-11T13:37:22.695Z,24.67
2023-02-11T13:41:29.920Z,21.10
2023-02-11T13:45:36.889Z,20.50
2023-02-11T13:49:41.498Z,26.23
2023-02-11T13:53:46.747Z,21.17
2023-02-11T13:58:18.304Z,21.53
2023-02-11T14:02:43.496Z,20.03
2023-02-11T14:07:39.358Z,21.00
2023-02-11T14:11:49.039Z,21.83
2023-02-11T14:16:05.260Z,21.80
2023-02-11T14:20:40.474Z,23.07
2023-02-11T14:24:54.545Z,22.93
2023-02-11T14:29:02.287Z,21.77
2023-02-11T14:33:19.199Z,22.17
2023-02-11T14:37:31.516Z,20.83
2023-02-11T14:41:42.882Z,24.00
2023-02-11T14:45:47.000Z,27.93
2023-02-11T14:49:50.908Z,23.80
2023-02-11T14:54:00.599Z,24.03
2023-02-11T14:58:15.613Z,21.57
2023-02-11T15:02:23.840Z,20.37
2023-02-11T15:06:32.074Z,24.13
2023-02-11T15:10:42.108Z,23.93
2023-02-11T15:14:48.147Z,26.13
2023-02-11T15:18:53.177Z,20.90
2023-02-11T15:22:58.805Z,22.73
2023-02-11T15:27:07.995Z,22.20
2023-02-11T15:31:16.151Z,22.77
2023-02-11T15:35:21.479Z,22.17
2023-02-11T15:39:32.434Z,24.17
2023-02-11T15:43:48.782Z,22.23
2023-02-11T15:47:52.943Z,22.67
2023-02-11T15:51:57.950Z,22.83
2023-02-11T15:56:09.426Z,24.90
2023-02-11T16:00:19.376Z,24.37
2023-02-11T16:04:24.193Z,21.87
2023-02-11T16:08:29.747Z,22.17
2023-02-11T16:12:33.177Z,24.97
2023-02-11T16:16:50.246Z,24.67
2023-02-11T16:20:53.267Z,23.60
2023-02-11T16:24:58.126Z,26.77
2023-02-11T16:29:08.990Z,24.67
2023-02-11T16:33:13.336Z,26.67
2023-02-11T16:37:16.018Z,26.73
2023-02-11T16:41:18.833Z,24.40
2023-02-11T16:45:21.821Z,24.67
2023-02-11T16:49:27.681Z,22.33
2023-02-11T16:53:30.412Z,24.63
2023-02-11T16:57:33.287Z,23.87
2023-02-11T17:01:39.116Z,24.57
2023-02-11T17:05:58.287Z,23.33
2023-02-11T17:10:01.436Z,25.57
2023-02-11T17:14:04.615Z,21.97
2023-02-11T17:18:07.411Z,22.70
2023-02-11T17:22:12.717Z,24.57
2023-02-11T17:26:15.476Z,25.23
2023-02-11T17:30:18.623Z,25.17
2023-02-11T17:34:21.787Z,23.03
2023-02-11T17:38:26.179Z,25.97
2023-02-11T17:42:29.871Z,23.47
2023-02-11T17:46:33.086Z,27.67
2023-02-11T17:50:37.031Z,22.47
2023-02-11T17:54:41.213Z,28.77
2023-02-11T17:58:43.942Z,23.43
2023-02-11T18:02:46.773Z,24.10
2023-02-11T18:06:50.500Z,20.63
2023-02-11T18:10:54.562Z,22.60
2023-02-11T18:14:58.286Z,25.77
2023-02-11T18:19:01.100Z,24.13
2023-02-11T18:23:03.906Z,23.10
2023-02-11T18:27:08.120Z,27.67
2023-02-11T18:31:13.916Z,25.97
2023-02-11T18:35:17.020Z,23.87
2023-02-11T18:39:20.468Z,24.53
2023-02-11T18:43:25.050Z,23.43
2023-02-11T18:47:27.928Z,20.73
2023-02-11T18:51:32.378Z,24.30
2023-02-11T18:55:35.502Z,22.20
2023-02-11T18:59:39.621Z,25.07
2023-02-11T19:03:42.509Z,27.20
2023-02-11T19:07:45.238Z,24.03
2023-02-11T19:11:48.829Z,23.17
2023-02-11T19:15:53.627Z,31.47
2023-02-11T19:19:56.554Z,57.70
2023-02-11T19:24:00.055Z,32.13
2023-02-11T19:28:03.260Z,28.40
2023-02-11T19:32:07.723Z,24.93
2023-02-11T19:36:11.893Z,22.60
2023-02-11T19:40:16.572Z,23.13
2023-02-11T19:44:19.671Z,28.70
2023-02-11T19:48:24.251Z,27.13
2023-02-11T19:52:27.090Z,29.47
2023-02-11T19:56:29.922Z,27.60
2023-02-11T20:00:32.701Z,27.03
2023-02-11T20:04:37.277Z,23.53
2023-02-11T20:08:40.345Z,23.73
2023-02-11T20:12:43.100Z,154.23
2023-02-11T20:16:49.571Z,65.07
2023-02-11T20:20:53.997Z,36.23
2023-02-11T20:24:56.742Z,24.63
2023-02-11T20:29:02.151Z,21.93
2023-02-11T20:33:04.907Z,26.43
2023-02-11T20:37:09.863Z,23.43
2023-02-11T20:41:17.213Z,24.87
2023-02-11T20:45:21.319Z,23.33
2023-02-11T20:49:25.541Z,24.33
2023-02-11T20:53:29.877Z,23.80
2023-02-11T20:57:35.064Z,23.87
2023-02-11T21:01:42.052Z,24.43
2023-02-11T21:05:45.077Z,27.50
2023-02-11T21:09:49.427Z,27.50
2023-02-11T21:13:52.142Z,24.33
2023-02-11T21:17:54.831Z,25.83
2023-02-11T21:22:00.520Z,28.37
2023-02-11T21:26:04.804Z,25.83
2023-02-11T21:30:08.934Z,25.43
2023-02-11T21:34:11.748Z,26.90
2023-02-11T21:38:14.469Z,26.03
2023-02-11T21:42:18.649Z,29.93
2023-02-11T21:46:22.786Z,28.03
2023-02-11T21:50:28.439Z,28.20
2023-02-11T21:54:32.206Z,26.93
2023-02-11T21:58:40.212Z,29.23
2023-02-11T22:02:43.032Z,28.43
2023-02-11T22:06:45.887Z,29.47
2023-02-11T22:10:48.892Z,28.90
2023-02-11T22:14:54.420Z,28.23
2023-02-11T22:18:58.593Z,26.93
2023-02-11T22:23:01.412Z,29.13
2023-02-11T22:27:04.235Z,26.80
2023-02-11T22:31:09.133Z,28.40
2023-02-11T22:35:11.885Z,29.73
2023-02-11T22:39:16.032Z,26.67
2023-02-11T22:43:19.054Z,28.17
2023-02-11T22:47:23.542Z,32.60
2023-02-11T22:51:28.532Z,27.37
2023-02-11T22:55:31.236Z,27.97
2023-02-11T22:59:33.908Z,28.33
2023-02-11T23:03:38.090Z,27.63
2023-02-11T23:07:40.792Z,31.13
2023-02-11T23:11:44.140Z,27.87
2023-02-11T23:15:47.502Z,30.73
2023-02-11T23:19:52.017Z,30.70
2023-02-11T23:23:56.310Z,29.83
2023-02-11T23:28:00.869Z,32.17
2023-02-11T23:32:04.001Z,31.47
2023-02-11T23:36:09.157Z,32.70
2023-02-11T23:40:12.871Z,31.07
2023-02-11T23:44:15.562Z,31.60
2023-02-11T23:48:18.288Z,32.30
2023-02-11T23:52:22.497Z,33.83
2023-02-11T23:56:27.444Z,34.00
